createdAt,value
2022-12-08T00:01:32.422Z,27.60
2022-12-08T00:04:01.267Z,22.00
2022-12-08T00:06:47.984Z,20.90
2022-12-08T00:09:23.348Z,21.53
2022-12-08T00:11:54.055Z,27.80
2022-12-08T00:14:24.040Z,19.97
2022-12-08T00:16:52.420Z,21.47
2022-12-08T00:19:20.734Z,26.00
2022-12-08T00:21:49.142Z,22.07
2022-12-08T00:24:18.527Z,23.33
2022-12-08T00:26:46.997Z,24.17
2022-12-08T00:29:17.696Z,23.60
2022-12-08T00:31:46.341Z,21.77
2022-12-08T00:34:14.944Z,19.83
2022-12-08T00:36:43.251Z,24.57
2022-12-08T00:39:12.371Z,19.40
2022-12-08T00:41:58.377Z,17.93
2022-12-08T00:44:28.201Z,25.23
2022-12-08T00:46:56.556Z,22.97
2022-12-08T00:49:24.878Z,25.93
2022-12-08T00:51:54.445Z,20.03
2022-12-08T00:54:23.334Z,22.60
2022-12-08T00:56:51.641Z,18.60
2022-12-08T00:59:19.938Z,17.07
2022-12-08T01:01:49.815Z,21.33
2022-12-08T01:04:19.503Z,21.57
2022-12-08T01:06:48.302Z,25.77
2022-12-08T01:09:17.134Z,23.70
2022-12-08T01:11:45.711Z,19.70
2022-12-08T01:14:14.292Z,21.73
2022-12-08T01:16:42.605Z,21.73
2022-12-08T01:19:13.571Z,20.60
2022-12-08T01:21:41.820Z,19.50
2022-12-08T01:24:12.097Z,22.30
2022-12-08T01:26:40.321Z,24.30
2022-12-08T01:29:08.713Z,18.53
2022-12-08T01:31:36.942Z,22.77
2022-12-08T01:34:05.411Z,18.70
2022-12-08T01:36:37.088Z,22.10
2022-12-08T01:39:06.657Z,22.37
2022-12-08T01:41:36.028Z,21.77
2022-12-08T01:44:05.854Z,25.73
2022-12-08T01:46:34.877Z,26.23
2022-12-08T01:49:05.017Z,24.43
2022-12-08T01:51:37.013Z,18.50
2022-12-08T01:54:05.879Z,21.63
2022-12-08T01:56:37.292Z,25.87
2022-12-08T01:59:05.599Z,21.67
2022-12-08T02:01:33.991Z,21.83
2022-12-08T02:04:04.123Z,24.27
2022-12-08T02:06:35.537Z,22.53
2022-12-08T02:09:05.445Z,22.03
2022-12-08T02:11:33.754Z,18.70
2022-12-08T02:14:02.559Z,20.17
2022-12-08T02:16:36.172Z,21.47
2022-12-08T02:22:02.920Z,19.57
2022-12-08T02:24:37.365Z,20.60
2022-12-08T02:27:13.246Z,22.43
2022-12-08T02:29:51.217Z,17.53
2022-12-08T02:32:26.444Z,19.80
2022-12-08T02:34:59.303Z,22.10
2022-12-08T02:37:36.104Z,16.67
2022-12-08T02:40:08.719Z,18.57
2022-12-08T02:42:39.142Z,20.43
2022-12-08T02:45:10.114Z,25.27
2022-12-08T02:47:38.781Z,20.50
2022-12-08T02:50:09.402Z,27.47
2022-12-08T02:52:41.746Z,24.13
2022-12-08T02:55:13.606Z,22.77
2022-12-08T02:57:47.035Z,19.53
2022-12-08T03:00:17.481Z,26.60
2022-12-08T03:02:50.361Z,31.40
2022-12-08T03:05:30.410Z,20.07
2022-12-08T03:08:02.447Z,25.10
2022-12-08T03:10:34.425Z,23.13
2022-12-08T03:13:04.531Z,23.83
2022-12-08T03:15:33.383Z,27.07
2022-12-08T03:18:01.867Z,27.50
2022-12-08T03:20:32.133Z,29.33
2022-12-08T03:23:01.703Z,25.90
2022-12-08T03:25:32.833Z,31.23
2022-12-08T03:28:01.495Z,33.87
2022-12-08T03:30:31.218Z,28.47
2022-12-08T03:33:03.823Z,28.33
2022-12-08T03:35:35.215Z,34.10
2022-12-08T03:38:04.519Z,33.70
2022-12-08T03:40:32.940Z,30.50
2022-12-08T03:43:01.230Z,38.30
2022-12-08T03:45:29.444Z,35.73
2022-12-08T03:47:58.007Z,39.70
2022-12-08T03:50:26.613Z,37.73
2022-12-08T03:52:56.215Z,37.43
2022-12-08T03:55:24.508Z,40.67
2022-12-08T03:57:52.712Z,40.23
2022-12-08T04:00:21.108Z,36.60
2022-12-08T04:02:49.391Z,36.13
2022-12-08T04:05:17.695Z,37.70
2022-12-08T04:07:45.995Z,30.30
2022-12-08T04:10:15.644Z,35.53
2022-12-08T04:12:43.866Z,38.53
2022-12-08T04:15:12.710Z,35.00
2022-12-08T04:17:40.928Z,37.70
2022-12-08T04:20:09.271Z,38.37
2022-12-08T04:22:37.483Z,32.43
2022-12-08T04:25:06.038Z,32.27
2022-12-08T04:27:35.701Z,35.57
2022-12-08T04:30:04.146Z,34.23
2022-12-08T04:32:32.646Z,31.40
2022-12-08T04:35:00.861Z,26.97
2022-12-08T04:37:29.910Z,40.60
2022-12-08T04:39:58.175Z,29.63
2022-12-08T04:42:26.462Z,41.57
2022-12-08T04:44:56.021Z,33.50
2022-12-08T04:47:24.251Z,32.57
2022-12-08T04:49:52.498Z,40.60
2022-12-08T04:52:20.708Z,37.03
2022-12-08T04:54:48.986Z,32.90
2022-12-08T04:57:17.286Z,34.30
2022-12-08T04:59:45.639Z,35.37
2022-12-08T05:02:15.367Z,32.40
2022-12-08T05:04:43.719Z,32.93
2022-12-08T05:07:11.900Z,29.90
2022-12-08T05:09:40.150Z,31.97
2022-12-08T05:12:08.618Z,31.03
2022-12-08T05:14:36.855Z,25.07
2022-12-08T05:17:09.567Z,41.27
2022-12-08T05:19:46.544Z,32.47
2022-12-08T05:22:17.543Z,30.67
2022-12-08T05:24:47.628Z,34.07
2022-12-08T05:27:16.789Z,38.87
2022-12-08T05:29:48.092Z,32.87
2022-12-08T05:32:16.312Z,41.63
2022-12-08T05:34:44.660Z,30.57
2022-12-08T05:37:14.346Z,27.37
2022-12-08T05:39:42.574Z,28.20
2022-12-08T05:42:10.852Z,24.20
2022-12-08T05:44:39.045Z,27.90
2022-12-08T05:47:07.240Z,28.40
2022-12-08T05:49:36.585Z,26.70
2022-12-08T05:52:04.897Z,35.37
2022-12-08T05:54:34.486Z,31.67
2022-12-08T05:57:02.711Z,33.03
2022-12-08T05:59:31.117Z,29.90
2022-12-08T06:01:59.633Z,30.80
2022-12-08T06:04:27.948Z,29.87
2022-12-08T06:06:56.116Z,32.43
2022-12-08T06:09:24.313Z,30.40
2022-12-08T06:11:54.976Z,33.30
2022-12-08T06:14:23.276Z,40.47
2022-12-08T06:16:51.696Z,29.90
2022-12-08T06:19:19.999Z,33.67
2022-12-08T06:21:48.229Z,32.33
2022-12-08T06:24:16.544Z,26.27
2022-12-08T06:26:44.720Z,32.57
2022-12-08T06:29:14.718Z,33.90
2022-12-08T06:31:43.057Z,27.03
2022-12-08T06:34:11.355Z,30.53
2022-12-08T06:36:39.568Z,32.50
2022-12-08T06:39:07.827Z,27.23
2022-12-08T06:41:56.000Z,30.57
2022-12-08T06:44:27.473Z,28.53
2022-12-08T06:46:56.890Z,28.53
2022-12-08T06:49:25.149Z,28.10
2022-12-08T06:51:53.394Z,28.60
2022-12-08T06:54:21.568Z,28.50
2022-12-08T06:56:49.835Z,33.27
2022-12-08T06:59:19.542Z,30.43
2022-12-08T07:01:49.276Z,27.90
2022-12-08T07:04:17.640Z,29.13
2022-12-08T07:06:45.933Z,34.20
2022-12-08T07:09:14.298Z,39.83
2022-12-08T07:11:42.763Z,31.70
2022-12-08T07:14:11.780Z,25.57
2022-12-08T07:16:40.173Z,25.70
2022-12-08T07:19:09.814Z,23.70
2022-12-08T07:21:38.312Z,29.30
2022-12-08T07:24:06.891Z,29.90
2022-12-08T07:26:35.137Z,32.17
2022-12-08T07:29:03.598Z,28.47
2022-12-08T07:31:31.950Z,24.70
2022-12-08T07:34:00.220Z,23.10
2022-12-08T07:36:29.880Z,23.40
2022-12-08T07:38:58.130Z,24.50
2022-12-08T07:41:27.581Z,24.20
2022-12-08T07:43:55.951Z,25.07
2022-12-08T07:46:25.174Z,24.33
2022-12-08T07:48:53.775Z,26.50
2022-12-08T07:51:22.219Z,27.37
2022-12-08T07:53:54.455Z,26.80
2022-12-08T07:56:23.501Z,22.57
2022-12-08T07:58:51.794Z,25.80
2022-12-08T08:01:21.461Z,26.00
2022-12-08T08:03:49.788Z,24.10
2022-12-08T08:06:18.628Z,20.93
2022-12-08T08:08:46.854Z,25.43
2022-12-08T08:11:20.804Z,29.43
2022-12-08T08:13:49.943Z,28.43
2022-12-08T08:16:18.596Z,26.13
2022-12-08T08:18:48.214Z,24.63
2022-12-08T08:21:43.690Z,22.93
2022-12-08T08:24:04.862Z,20.07
2022-12-08T08:26:34.518Z,19.30
2022-12-08T08:29:02.730Z,19.40
2022-12-08T08:31:31.206Z,22.97
2022-12-08T08:34:04.794Z,22.90
2022-12-08T08:36:33.096Z,25.13
2022-12-08T08:39:01.396Z,22.80
2022-12-08T08:41:29.638Z,26.87
2022-12-08T08:43:59.196Z,26.80
2022-12-08T08:46:27.489Z,23.33
2022-12-08T08:48:55.732Z,33.53
2022-12-08T08:51:23.983Z,29.43
2022-12-08T08:53:52.229Z,27.03
2022-12-08T08:56:20.905Z,25.77
2022-12-08T08:58:49.705Z,26.63
2022-12-08T09:01:21.052Z,21.97
2022-12-08T09:03:49.555Z,31.07
2022-12-08T09:06:18.497Z,30.57
2022-12-08T09:08:47.535Z,26.17
2022-12-08T09:11:16.170Z,28.00
2022-12-08T09:13:44.373Z,25.93
2022-12-08T09:16:12.843Z,23.33
2022-12-08T09:18:42.539Z,30.13
2022-12-08T09:21:14.837Z,25.13
2022-12-08T09:23:43.070Z,28.30
2022-12-08T09:26:11.316Z,30.73
2022-12-08T09:28:39.808Z,31.17
2022-12-08T09:31:08.148Z,29.00
2022-12-08T09:33:36.467Z,31.20
2022-12-08T09:36:06.299Z,33.53
2022-12-08T09:38:34.553Z,28.87
2022-12-08T09:41:04.936Z,27.90
2022-12-08T09:43:45.367Z,32.37
2022-12-08T09:46:16.256Z,36.13
2022-12-08T09:48:47.966Z,27.00
2022-12-08T09:51:17.878Z,27.40
2022-12-08T09:53:48.274Z,27.67
2022-12-08T09:56:18.526Z,32.97
2022-12-08T09:58:50.276Z,36.53
2022-12-08T10:01:19.515Z,37.87
2022-12-08T10:03:48.135Z,33.90
2022-12-08T10:06:23.102Z,25.87
2022-12-08T10:08:57.434Z,33.13
2022-12-08T10:11:28.591Z,32.93
2022-12-08T10:13:58.602Z,37.77
2022-12-08T10:16:31.945Z,31.23
2022-12-08T10:19:03.339Z,34.27
2022-12-08T10:21:33.775Z,37.10
2022-12-08T10:24:05.823Z,28.53
2022-12-08T10:26:34.099Z,27.57
2022-12-08T10:29:03.224Z,31.07
2022-12-08T10:31:32.140Z,30.50
2022-12-08T10:34:01.970Z,34.00
2022-12-08T10:36:45.060Z,30.17
2022-12-08T10:39:30.809Z,33.43
2022-12-08T10:42:02.179Z,29.53
2022-12-08T10:44:30.655Z,30.20
2022-12-08T10:46:59.002Z,34.20
2022-12-08T10:49:28.728Z,33.30
2022-12-08T10:51:57.860Z,26.87
2022-12-08T10:54:31.521Z,33.53
2022-12-08T10:56:59.834Z,32.00
2022-12-08T10:59:28.164Z,28.73
2022-12-08T11:01:57.805Z,28.80
2022-12-08T11:04:28.683Z,32.30
2022-12-08T11:06:56.983Z,28.77
2022-12-08T11:09:28.153Z,31.03
2022-12-08T11:11:59.216Z,22.73
2022-12-08T11:14:28.606Z,28.13
2022-12-08T11:16:58.876Z,34.37
2022-12-08T11:19:28.608Z,29.13
2022-12-08T11:21:56.943Z,28.27
2022-12-08T11:24:26.276Z,26.50
2022-12-08T11:26:55.680Z,32.40
2022-12-08T11:29:25.267Z,28.40
2022-12-08T11:31:55.224Z,31.03
2022-12-08T11:34:27.951Z,30.27
2022-12-08T11:36:57.078Z,27.97
2022-12-08T11:39:27.565Z,30.17
2022-12-08T11:41:56.288Z,34.57
2022-12-08T11:44:30.728Z,27.53
2022-12-08T11:47:01.611Z,25.73
2022-12-08T11:49:35.027Z,27.67
2022-12-08T11:52:05.351Z,27.40
2022-12-08T11:54:35.984Z,23.10
2022-12-08T11:57:05.293Z,23.97
2022-12-08T11:59:38.127Z,25.30
2022-12-08T12:02:07.282Z,29.90
2022-12-08T12:04:39.348Z,24.97
2022-12-08T12:07:19.405Z,27.53
2022-12-08T12:09:58.848Z,29.63
2022-12-08T12:12:39.487Z,25.33
2022-12-08T12:15:37.988Z,26.83
2022-12-08T12:18:10.742Z,25.10
2022-12-08T12:20:44.724Z,28.53
2022-12-08T12:23:17.917Z,26.40
2022-12-08T12:25:51.911Z,30.60
2022-12-08T12:28:20.275Z,35.23
2022-12-08T12:30:55.555Z,31.03
2022-12-08T12:33:24.483Z,24.90
2022-12-08T12:35:52.834Z,27.57
2022-12-08T12:38:42.512Z,26.77
2022-12-08T12:41:12.006Z,21.13
2022-12-08T12:43:40.715Z,22.63
2022-12-08T12:46:27.782Z,23.20
2022-12-08T12:49:17.374Z,20.00
2022-12-08T12:51:46.847Z,18.30
2022-12-08T12:54:22.370Z,16.60
2022-12-08T12:56:51.995Z,19.43
2022-12-08T12:59:24.291Z,17.60
2022-12-08T13:01:56.809Z,20.80
2022-12-08T13:04:37.759Z,17.40
2022-12-08T13:07:06.476Z,17.60
2022-12-08T13:09:36.893Z,19.60
2022-12-08T13:12:10.894Z,21.33
2022-12-08T13:14:40.730Z,16.47
2022-12-08T13:17:12.070Z,15.80
2022-12-08T13:19:44.377Z,18.87
2022-12-08T13:22:33.403Z,15.47
2022-12-08T13:25:16.529Z,24.03
2022-12-08T13:27:53.586Z,13.40
2022-12-08T13:30:41.014Z,16.13
2022-12-08T13:33:19.654Z,16.40
2022-12-08T13:35:55.496Z,12.27
2022-12-08T13:38:27.353Z,17.13
2022-12-08T13:40:56.285Z,15.67
2022-12-08T13:43:36.221Z,18.77
2022-12-08T13:46:57.867Z,14.97
2022-12-08T13:53:41.724Z,11.67
2022-12-08T13:55:27.046Z,12.10
2022-12-08T13:57:32.737Z,13.50
2022-12-08T14:00:02.258Z,18.33
2022-12-08T14:02:32.575Z,15.83
2022-12-08T14:05:34.928Z,17.07
2022-12-08T14:07:53.140Z,16.50
2022-12-08T14:10:22.511Z,13.73
2022-12-08T14:12:56.740Z,14.07
2022-12-08T14:15:27.797Z,13.67
2022-12-08T14:17:59.076Z,13.50
2022-12-08T14:20:28.927Z,13.47
2022-12-08T14:22:59.928Z,16.07
2022-12-08T14:25:28.831Z,14.80
2022-12-08T14:27:58.955Z,14.10
2022-12-08T14:30:28.311Z,14.13
2022-12-08T14:32:58.360Z,13.10
2022-12-08T14:35:27.709Z,12.83
2022-12-08T14:37:56.887Z,10.60
2022-12-08T14:40:29.084Z,13.87
2022-12-08T14:43:07.526Z,12.37
2022-12-08T14:45:36.110Z,12.97
2022-12-08T14:48:19.242Z,11.57
2022-12-08T14:50:57.064Z,8.63
2022-12-08T14:53:25.448Z,13.90
2022-12-08T14:55:55.074Z,11.90
2022-12-08T14:58:27.725Z,12.40
2022-12-08T15:00:58.451Z,16.70
2022-12-08T15:03:27.748Z,18.37
2022-12-08T15:05:57.950Z,19.87
2022-12-08T15:08:26.279Z,18.53
2022-12-08T15:11:12.933Z,17.63
2022-12-08T15:13:47.198Z,17.80
2022-12-08T15:16:26.035Z,18.80
2022-12-08T15:19:03.022Z,16.90
2022-12-08T15:21:32.491Z,16.97
2022-12-08T15:24:00.778Z,15.33
2022-12-08T15:26:29.301Z,13.10
2022-12-08T15:28:58.899Z,15.53
2022-12-08T15:31:27.175Z,13.33
2022-12-08T15:33:55.520Z,13.80
2022-12-08T15:36:23.733Z,13.97
2022-12-08T15:38:52.025Z,9.97
2022-12-08T15:41:31.096Z,19.43
2022-12-08T15:44:00.643Z,14.93
2022-12-08T15:46:29.081Z,15.27
2022-12-08T15:48:58.347Z,16.83
2022-12-08T15:51:26.752Z,16.60
2022-12-08T15:53:55.295Z,14.00
2022-12-08T15:56:28.049Z,15.93
2022-12-08T15:58:57.867Z,12.57
2022-12-08T16:01:28.214Z,15.50
2022-12-08T16:09:34.873Z,15.60
2022-12-08T16:12:21.065Z,14.03
2022-12-08T16:17:39.830Z,15.93
2022-12-08T16:20:13.957Z,15.70
2022-12-08T16:23:13.029Z,15.13
2022-12-08T16:25:46.242Z,16.97
2022-12-08T16:28:52.287Z,18.37
2022-12-08T16:31:13.002Z,15.13
2022-12-08T16:33:43.504Z,13.47
2022-12-08T16:36:12.234Z,18.43
2022-12-08T16:38:41.556Z,21.40
2022-12-08T16:41:31.847Z,12.70
2022-12-08T16:44:02.711Z,17.20
2022-12-08T16:46:31.085Z,14.47
2022-12-08T16:49:01.829Z,19.47
2022-12-08T16:51:30.108Z,16.67
2022-12-08T16:53:58.730Z,19.60
2022-12-08T16:56:32.530Z,17.17
2022-12-08T16:59:01.929Z,17.30
2022-12-08T17:01:30.402Z,16.27
2022-12-08T17:04:29.810Z,16.73
2022-12-08T17:06:50.553Z,20.17
2022-12-08T17:09:18.834Z,20.33
2022-12-08T17:11:47.045Z,19.53
2022-12-08T17:14:15.356Z,24.60
2022-12-08T17:16:44.155Z,17.13
2022-12-08T17:19:15.122Z,16.07
2022-12-08T17:21:51.723Z,16.10
2022-12-08T17:24:22.213Z,16.30
2022-12-08T17:26:53.702Z,21.50
2022-12-08T17:29:21.937Z,24.73
2022-12-08T17:31:59.499Z,26.33
2022-12-08T17:34:27.822Z,21.63
2022-12-08T17:36:57.449Z,22.57
2022-12-08T17:39:26.776Z,24.63
2022-12-08T17:41:55.054Z,25.70
2022-12-08T17:44:23.327Z,18.53
2022-12-08T17:46:53.476Z,28.10
2022-12-08T17:49:23.586Z,39.47
2022-12-08T17:51:52.503Z,20.27
2022-12-08T17:54:22.338Z,22.40
2022-12-08T17:56:50.750Z,26.17
2022-12-08T17:59:19.309Z,23.53
2022-12-08T18:01:47.657Z,25.20
2022-12-08T18:04:15.982Z,20.50
2022-12-08T18:06:44.185Z,21.53
2022-12-08T18:09:12.484Z,19.47
2022-12-08T18:11:42.137Z,21.87
2022-12-08T18:14:10.777Z,21.80
2022-12-08T18:16:39.642Z,20.30
2022-12-08T18:19:08.480Z,20.80
2022-12-08T18:21:36.897Z,23.00
2022-12-08T18:24:05.524Z,20.03
2022-12-08T18:26:33.779Z,21.73
2022-12-08T18:29:03.701Z,21.27
2022-12-08T18:31:32.094Z,22.23
2022-12-08T18:34:00.453Z,26.10
2022-12-08T18:36:28.757Z,23.13
2022-12-08T18:38:57.175Z,28.10
2022-12-08T18:41:26.725Z,25.57
2022-12-08T18:43:55.597Z,26.67
2022-12-08T18:46:26.004Z,28.57
2022-12-08T18:48:54.220Z,19.97
2022-12-08T18:51:23.324Z,20.50
2022-12-08T18:53:51.915Z,20.43
2022-12-08T18:56:22.378Z,19.90
2022-12-08T18:58:50.604Z,21.00
2022-12-08T19:01:19.211Z,25.30
2022-12-08T19:04:20.052Z,22.13
2022-12-08T19:06:47.073Z,18.00
2022-12-08T19:09:15.812Z,22.00
2022-12-08T19:11:44.276Z,19.83
2022-12-08T19:14:14.572Z,21.37
2022-12-08T19:16:42.872Z,18.37
2022-12-08T19:19:12.607Z,26.50
2022-12-08T19:21:46.068Z,19.40
2022-12-08T19:24:15.220Z,22.87
2022-12-08T19:26:44.031Z,23.47
2022-12-08T19:29:12.623Z,22.50
2022-12-08T19:31:41.405Z,19.53
2022-12-08T19:34:09.749Z,21.67
2022-12-08T19:36:42.577Z,23.73
2022-12-08T19:39:32.098Z,24.13
2022-12-08T19:42:17.805Z,24.30
2022-12-08T19:44:54.035Z,27.77
2022-12-08T19:47:22.743Z,19.73
2022-12-08T19:49:51.122Z,21.43
2022-12-08T19:52:20.744Z,21.67
2022-12-08T19:54:49.129Z,18.10
2022-12-08T19:57:17.478Z,23.20
2022-12-08T19:59:45.724Z,19.90
2022-12-08T20:02:14.125Z,19.67
2022-12-08T20:04:42.478Z,21.37
2022-12-08T20:07:13.912Z,22.57
2022-12-08T20:09:43.886Z,19.47
2022-12-08T20:12:12.257Z,21.20
2022-12-08T20:14:45.699Z,22.67
2022-12-08T20:17:14.519Z,22.93
2022-12-08T20:19:42.876Z,19.27
2022-12-08T20:22:11.157Z,23.23
2022-12-08T20:24:39.640Z,18.90
2022-12-08T20:27:09.311Z,20.10
2022-12-08T20:29:37.597Z,24.77
2022-12-08T20:32:06.014Z,27.53
2022-12-08T20:34:35.085Z,20.30
2022-12-08T20:37:03.585Z,22.43
2022-12-08T20:39:31.835Z,25.70
2022-12-08T20:42:00.293Z,25.73
2022-12-08T20:44:30.249Z,23.97
2022-12-08T20:46:58.934Z,25.67
2022-12-08T20:49:32.775Z,25.47
2022-12-08T20:52:02.944Z,22.20
2022-12-08T20:54:31.361Z,22.60
2022-12-08T20:56:59.857Z,28.63
2022-12-08T20:59:28.124Z,26.00
2022-12-08T21:01:57.742Z,25.80
2022-12-08T21:04:26.404Z,27.90
2022-12-08T21:06:54.778Z,24.73
2022-12-08T21:09:23.147Z,23.27
2022-12-08T21:11:51.562Z,26.87
2022-12-08T21:14:19.769Z,28.87
2022-12-08T21:16:49.873Z,23.10
2022-12-08T21:19:19.963Z,27.67
2022-12-08T21:21:50.510Z,31.50
2022-12-08T21:24:19.019Z,29.73
2022-12-08T21:26:47.428Z,26.83
2022-12-08T21:29:15.833Z,28.60
2022-12-08T21:31:44.273Z,24.43
2022-12-08T21:34:13.098Z,24.30
2022-12-08T21:36:42.792Z,23.93
2022-12-08T21:39:13.022Z,25.10
2022-12-08T21:41:59.860Z,26.70
2022-12-08T21:44:28.111Z,22.17
2022-12-08T21:46:56.613Z,20.57
2022-12-08T21:49:25.072Z,25.33
2022-12-08T21:51:54.673Z,26.07
2022-12-08T21:54:23.036Z,21.90
2022-12-08T21:56:51.735Z,22.27
2022-12-08T21:59:20.838Z,31.20
2022-12-08T22:01:49.701Z,24.33
2022-12-08T22:04:19.132Z,22.27
2022-12-08T22:06:47.751Z,23.43
2022-12-08T22:09:17.450Z,21.27
2022-12-08T22:11:45.929Z,23.77
2022-12-08T22:14:15.346Z,22.37
2022-12-08T22:16:44.297Z,26.83
2022-12-08T22:19:13.197Z,22.80
2022-12-08T22:21:41.750Z,21.73
2022-12-08T22:24:10.315Z,26.00
2022-12-08T22:26:40.193Z,25.43
2022-12-08T22:29:08.908Z,20.50
2022-12-08T22:31:37.213Z,23.97
2022-12-08T22:34:05.927Z,21.20
2022-12-08T22:36:34.353Z,19.03
2022-12-08T22:39:03.245Z,27.23
2022-12-08T22:41:31.440Z,26.50
2022-12-08T22:44:01.001Z,23.00
2022-12-08T22:46:29.349Z,23.33
2022-12-08T22:48:57.570Z,26.43
2022-12-08T22:51:25.738Z,23.47
2022-12-08T22:53:54.333Z,21.83
2022-12-08T22:56:22.777Z,21.70
2022-12-08T22:58:51.243Z,23.10
2022-12-08T23:01:25.568Z,28.67
2022-12-08T23:03:54.229Z,25.83
2022-12-08T23:06:22.763Z,25.30
2022-12-08T23:08:51.750Z,16.63
2022-12-08T23:11:20.994Z,21.60
2022-12-08T23:13:49.237Z,16.20
2022-12-08T23:16:20.877Z,21.70
2022-12-08T23:18:50.593Z,18.40
2022-12-08T23:21:19.844Z,20.30
2022-12-08T23:23:48.339Z,18.33
2022-12-08T23:26:17.972Z,20.30
2022-12-08T23:28:46.528Z,17.63
2022-12-08T23:31:15.318Z,21.60
2022-12-08T23:33:44.267Z,23.97
2022-12-08T23:36:14.729Z,25.07
2022-12-08T23:38:43.210Z,25.13
2022-12-08T23:41:12.760Z,24.33
2022-12-08T23:43:44.606Z,19.13
2022-12-08T23:46:13.173Z,21.50
2022-12-08T23:48:41.771Z,20.70
2022-12-08T23:51:10.155Z,19.93
2022-12-08T23:53:39.808Z,24.43
2022-12-08T23:56:09.043Z,24.90
2022-12-08T23:58:37.726Z,21.83
